sensor_id;sensor_type;location;lat;lon;timestamp;P1;durP1;ratioP1;P2;durP2;ratioP2
76626;SDS011;65519;53.230;10.390;2023-11-19T00:01:16;15.07;;;6.25;;
76626;SDS011;65519;53.230;10.390;2023-11-19T00:03:42;10.50;;;5.53;;
76626;SDS011;65519;53.230;10.390;2023-11-19T00:06:07;9.75;;;5.90;;
76626;SDS011;65519;53.230;10.390;2023-11-19T00:08:35;11.70;;;5.78;;
76626;SDS011;65519;53.230;10.390;2023-11-19T00:11:00;10.68;;;5.45;;
76626;SDS011;65519;53.230;10.390;2023-11-19T00:13:26;8.55;;;4.80;;
76626;SDS011;65519;53.230;10.390;2023-11-19T00:15:51;9.13;;;4.57;;
76626;SDS011;65519;53.230;10.390;2023-11-19T00:18:18;9.20;;;4.68;;
76626;SDS011;65519;53.230;10.390;2023-11-19T00:20:43;7.50;;;4.28;;
76626;SDS011;65519;53.230;10.390;2023-11-19T00:23:09;10.02;;;5.55;;
76626;SDS011;65519;53.230;10.390;2023-11-19T00:25:35;10.27;;;5.65;;
76626;SDS011;65519;53.230;10.390;2023-11-19T00:28:00;8.45;;;4.38;;
76626;SDS011;65519;53.230;10.390;2023-11-19T00:30:26;11.25;;;5.53;;
76626;SDS011;65519;53.230;10.390;2023-11-19T00:32:52;12.70;;;6.47;;
76626;SDS011;65519;53.230;10.390;2023-11-19T00:35:18;14.45;;;7.38;;
76626;SDS011;65519;53.230;10.390;2023-11-19T00:37:43;12.68;;;5.40;;
76626;SDS011;65519;53.230;10.390;2023-11-19T00:40:10;9.05;;;3.72;;
76626;SDS011;65519;53.230;10.390;2023-11-19T00:42:36;6.10;;;3.58;;
76626;SDS011;65519;53.230;10.390;2023-11-19T00:45:03;7.95;;;3.92;;
76626;SDS011;65519;53.230;10.390;2023-11-19T00:47:33;10.10;;;3.90;;
76626;SDS011;65519;53.230;10.390;2023-11-19T00:49:58;7.10;;;4.07;;
76626;SDS011;65519;53.230;10.390;2023-11-19T00:52:24;7.53;;;3.63;;
76626;SDS011;65519;53.230;10.390;2023-11-19T00:54:49;6.10;;;3.78;;
76626;SDS011;65519;53.230;10.390;2023-11-19T00:57:15;8.45;;;4.55;;
76626;SDS011;65519;53.230;10.390;2023-11-19T00:59:43;6.85;;;3.80;;
76626;SDS011;65519;53.230;10.390;2023-11-19T01:02:09;8.88;;;3.70;;
76626;SDS011;65519;53.230;10.390;2023-11-19T01:04:35;9.57;;;4.32;;
76626;SDS011;65519;53.230;10.390;2023-11-19T01:07:01;8.55;;;4.25;;
76626;SDS011;65519;53.230;10.390;2023-11-19T01:09:30;8.52;;;3.80;;
76626;SDS011;65519;53.230;10.390;2023-11-19T01:12:00;8.98;;;3.63;;
76626;SDS011;65519;53.230;10.390;2023-11-19T01:14:26;9.73;;;4.72;;
76626;SDS011;65519;53.230;10.390;2023-11-19T01:16:52;8.02;;;4.53;;
76626;SDS011;65519;53.230;10.390;2023-11-19T01:19:19;6.68;;;3.72;;
76626;SDS011;65519;53.230;10.390;2023-11-19T01:21:46;9.77;;;3.75;;
76626;SDS011;65519;53.230;10.390;2023-11-19T01:24:12;8.40;;;4.15;;
76626;SDS011;65519;53.230;10.390;2023-11-19T01:26:38;6.82;;;3.50;;
76626;SDS011;65519;53.230;10.390;2023-11-19T01:29:04;6.15;;;3.30;;
76626;SDS011;65519;53.230;10.390;2023-11-19T01:31:30;9.82;;;3.92;;
76626;SDS011;65519;53.230;10.390;2023-11-19T01:33:57;6.35;;;3.83;;
76626;SDS011;65519;53.230;10.390;2023-11-19T01:36:22;7.85;;;3.53;;
76626;SDS011;65519;53.230;10.390;2023-11-19T01:38:48;7.80;;;3.55;;
76626;SDS011;65519;53.230;10.390;2023-11-19T01:41:14;8.32;;;4.07;;
76626;SDS011;65519;53.230;10.390;2023-11-19T01:43:39;7.63;;;3.80;;
76626;SDS011;65519;53.230;10.390;2023-11-19T01:46:07;8.55;;;3.53;;
76626;SDS011;65519;53.230;10.390;2023-11-19T01:48:36;7.90;;;3.45;;
76626;SDS011;65519;53.230;10.390;2023-11-19T01:51:06;8.73;;;4.00;;
76626;SDS011;65519;53.230;10.390;2023-11-19T01:53:33;6.55;;;3.28;;
76626;SDS011;65519;53.230;10.390;2023-11-19T01:56:00;7.15;;;4.32;;
76626;SDS011;65519;53.230;10.390;2023-11-19T01:58:26;6.55;;;3.55;;
76626;SDS011;65519;53.230;10.390;2023-11-19T02:00:52;6.25;;;3.38;;
76626;SDS011;65519;53.230;10.390;2023-11-19T02:03:18;7.10;;;3.03;;
76626;SDS011;65519;53.230;10.390;2023-11-19T02:05:46;4.93;;;2.90;;
76626;SDS011;65519;53.230;10.390;2023-11-19T02:08:14;8.18;;;3.70;;
76626;SDS011;65519;53.230;10.390;2023-11-19T02:10:39;6.63;;;3.30;;
76626;SDS011;65519;53.230;10.390;2023-11-19T02:13:04;7.70;;;3.80;;
76626;SDS011;65519;53.230;10.390;2023-11-19T02:15:31;5.72;;;2.97;;
76626;SDS011;65519;53.230;10.390;2023-11-19T02:18:16;5.20;;;2.78;;
76626;SDS011;65519;53.230;10.390;2023-11-19T02:20:42;6.13;;;3.30;;
76626;SDS011;65519;53.230;10.390;2023-11-19T02:23:08;3.95;;;2.42;;
76626;SDS011;65519;53.230;10.390;2023-11-19T02:25:33;6.18;;;2.70;;
76626;SDS011;65519;53.230;10.390;2023-11-19T02:28:00;3.67;;;2.35;;
76626;SDS011;65519;53.230;10.390;2023-11-19T02:30:26;3.00;;;2.00;;
76626;SDS011;65519;53.230;10.390;2023-11-19T02:32:54;3.45;;;2.00;;
76626;SDS011;65519;53.230;10.390;2023-11-19T02:35:23;3.85;;;1.92;;
76626;SDS011;65519;53.230;10.390;2023-11-19T02:37:48;2.70;;;1.80;;
76626;SDS011;65519;53.230;10.390;2023-11-19T02:40:14;2.80;;;1.73;;
76626;SDS011;65519;53.230;10.390;2023-11-19T02:42:40;3.38;;;2.10;;
76626;SDS011;65519;53.230;10.390;2023-11-19T02:45:06;3.15;;;2.13;;
76626;SDS011;65519;53.230;10.390;2023-11-19T02:47:33;3.90;;;2.35;;
76626;SDS011;65519;53.230;10.390;2023-11-19T02:49:59;3.33;;;2.05;;
76626;SDS011;65519;53.230;10.390;2023-11-19T02:52:25;2.78;;;2.00;;
76626;SDS011;65519;53.230;10.390;2023-11-19T02:54:50;3.15;;;1.98;;
76626;SDS011;65519;53.230;10.390;2023-11-19T02:57:16;2.72;;;1.80;;
76626;SDS011;65519;53.230;10.390;2023-11-19T02:59:44;3.38;;;1.85;;
76626;SDS011;65519;53.230;10.390;2023-11-19T03:02:10;4.28;;;2.08;;
76626;SDS011;65519;53.230;10.390;2023-11-19T03:04:37;2.17;;;1.40;;
76626;SDS011;65519;53.230;10.390;2023-11-19T03:07:08;2.00;;;1.67;;
76626;SDS011;65519;53.230;10.390;2023-11-19T03:09:33;2.13;;;1.52;;
76626;SDS011;65519;53.230;10.390;2023-11-19T03:12:00;3.10;;;1.50;;
76626;SDS011;65519;53.230;10.390;2023-11-19T03:14:26;2.25;;;1.60;;
76626;SDS011;65519;53.230;10.390;2023-11-19T03:16:52;2.38;;;1.60;;
76626;SDS011;65519;53.230;10.390;2023-11-19T03:19:18;3.08;;;1.58;;
76626;SDS011;65519;53.230;10.390;2023-11-19T03:21:43;3.08;;;1.63;;
76626;SDS011;65519;53.230;10.390;2023-11-19T03:24:10;2.47;;;1.70;;
76626;SDS011;65519;53.230;10.390;2023-11-19T03:26:36;2.00;;;1.35;;
76626;SDS011;65519;53.230;10.390;2023-11-19T03:29:02;2.42;;;1.50;;
76626;SDS011;65519;53.230;10.390;2023-11-19T03:31:28;2.88;;;1.67;;
76626;SDS011;65519;53.230;10.390;2023-11-19T03:33:53;2.13;;;1.42;;
76626;SDS011;65519;53.230;10.390;2023-11-19T03:36:20;2.17;;;1.45;;
76626;SDS011;65519;53.230;10.390;2023-11-19T03:38:45;2.15;;;1.48;;
76626;SDS011;65519;53.230;10.390;2023-11-19T03:41:14;1.77;;;1.20;;
76626;SDS011;65519;53.230;10.390;2023-11-19T03:43:40;2.45;;;1.40;;
76626;SDS011;65519;53.230;10.390;2023-11-19T03:46:18;2.20;;;1.33;;
76626;SDS011;65519;53.230;10.390;2023-11-19T03:48:44;1.60;;;1.15;;
76626;SDS011;65519;53.230;10.390;2023-11-19T03:51:11;2.47;;;1.52;;
76626;SDS011;65519;53.230;10.390;2023-11-19T03:53:41;2.10;;;1.50;;
76626;SDS011;65519;53.230;10.390;2023-11-19T03:56:08;2.28;;;1.40;;
76626;SDS011;65519;53.230;10.390;2023-11-19T03:58:35;2.30;;;1.40;;
76626;SDS011;65519;53.230;10.390;2023-11-19T04:01:01;3.20;;;1.60;;
76626;SDS011;65519;53.230;10.390;2023-11-19T04:03:27;2.65;;;1.65;;
76626;SDS011;65519;53.230;10.390;2023-11-19T04:05:53;2.10;;;1.50;;
76626;SDS011;65519;53.230;10.390;2023-11-19T04:08:18;2.22;;;1.55;;
76626;SDS011;65519;53.230;10.390;2023-11-19T04:10:44;3.10;;;2.00;;
76626;SDS011;65519;53.230;10.390;2023-11-19T04:13:10;4.07;;;1.80;;
76626;SDS011;65519;53.230;10.390;2023-11-19T04:15:36;4.07;;;1.75;;
76626;SDS011;65519;53.230;10.390;2023-11-19T04:18:01;3.28;;;2.00;;
76626;SDS011;65519;53.230;10.390;2023-11-19T04:20:27;4.25;;;2.15;;
76626;SDS011;65519;53.230;10.390;2023-11-19T04:22:55;5.03;;;2.25;;
76626;SDS011;65519;53.230;10.390;2023-11-19T04:25:21;2.63;;;1.83;;
76626;SDS011;65519;53.230;10.390;2023-11-19T04:27:49;4.20;;;2.28;;
76626;SDS011;65519;53.230;10.390;2023-11-19T04:30:14;4.57;;;2.67;;
76626;SDS011;65519;53.230;10.390;2023-11-19T04:32:40;5.13;;;2.95;;
76626;SDS011;65519;53.230;10.390;2023-11-19T04:35:06;5.53;;;3.40;;
76626;SDS011;65519;53.230;10.390;2023-11-19T04:37:32;7.15;;;3.75;;
76626;SDS011;65519;53.230;10.390;2023-11-19T04:39:57;8.95;;;4.43;;
76626;SDS011;65519;53.230;10.390;2023-11-19T04:42:25;9.27;;;4.10;;
76626;SDS011;65519;53.230;10.390;2023-11-19T04:44:50;9.52;;;4.82;;
76626;SDS011;65519;53.230;10.390;2023-11-19T04:47:15;11.15;;;5.80;;
76626;SDS011;65519;53.230;10.390;2023-11-19T04:49:41;10.32;;;5.68;;
76626;SDS011;65519;53.230;10.390;2023-11-19T04:52:09;14.43;;;6.18;;
76626;SDS011;65519;53.230;10.390;2023-11-19T04:54:34;11.50;;;5.78;;
76626;SDS011;65519;53.230;10.390;2023-11-19T04:57:00;12.63;;;6.18;;
76626;SDS011;65519;53.230;10.390;2023-11-19T04:59:25;11.82;;;5.93;;
76626;SDS011;65519;53.230;10.390;2023-11-19T05:01:52;15.32;;;7.05;;
76626;SDS011;65519;53.230;10.390;2023-11-19T05:04:18;17.52;;;7.18;;
76626;SDS011;65519;53.230;10.390;2023-11-19T05:06:44;16.10;;;7.38;;
76626;SDS011;65519;53.230;10.390;2023-11-19T05:09:09;16.52;;;7.22;;
76626;SDS011;65519;53.230;10.390;2023-11-19T05:11:37;13.35;;;6.82;;
76626;SDS011;65519;53.230;10.390;2023-11-19T05:14:04;15.82;;;7.18;;
76626;SDS011;65519;53.230;10.390;2023-11-19T05:16:29;17.90;;;8.15;;
76626;SDS011;65519;53.230;10.390;2023-11-19T05:18:55;19.80;;;8.80;;
76626;SDS011;65519;53.230;10.390;2023-11-19T05:21:20;20.42;;;8.30;;
76626;SDS011;65519;53.230;10.390;2023-11-19T05:23:46;22.35;;;9.38;;
76626;SDS011;65519;53.230;10.390;2023-11-19T05:26:21;22.58;;;10.07;;
76626;SDS011;65519;53.230;10.390;2023-11-19T05:28:48;26.23;;;9.75;;
76626;SDS011;65519;53.230;10.390;2023-11-19T05:31:14;28.02;;;10.93;;
76626;SDS011;65519;53.230;10.390;2023-11-19T05:33:39;20.45;;;8.88;;
76626;SDS011;65519;53.230;10.390;2023-11-19T05:36:05;26.08;;;10.02;;
76626;SDS011;65519;53.230;10.390;2023-11-19T05:40:58;23.90;;;9.95;;
76626;SDS011;65519;53.230;10.390;2023-11-19T05:43:24;26.92;;;10.48;;
76626;SDS011;65519;53.230;10.390;2023-11-19T05:45:49;28.42;;;11.32;;
76626;SDS011;65519;53.230;10.390;2023-11-19T05:48:14;31.65;;;11.23;;
76626;SDS011;65519;53.230;10.390;2023-11-19T05:50:40;28.83;;;11.48;;
76626;SDS011;65519;53.230;10.390;2023-11-19T05:53:05;27.77;;;11.07;;
76626;SDS011;65519;53.230;10.390;2023-11-19T05:55:34;32.90;;;11.30;;
76626;SDS011;65519;53.230;10.390;2023-11-19T05:58:00;26.73;;;10.55;;
76626;SDS011;65519;53.230;10.390;2023-11-19T06:00:25;28.17;;;11.02;;
76626;SDS011;65519;53.230;10.390;2023-11-19T06:02:51;31.05;;;11.48;;
76626;SDS011;65519;53.230;10.390;2023-11-19T06:05:17;32.78;;;10.75;;
76626;SDS011;65519;53.230;10.390;2023-11-19T06:07:43;29.35;;;11.32;;
76626;SDS011;65519;53.230;10.390;2023-11-19T06:10:09;28.90;;;11.27;;
76626;SDS011;65519;53.230;10.390;2023-11-19T06:12:35;32.60;;;12.15;;
76626;SDS011;65519;53.230;10.390;2023-11-19T06:15:04;34.30;;;12.93;;
76626;SDS011;65519;53.230;10.390;2023-11-19T06:17:30;29.00;;;12.05;;
76626;SDS011;65519;53.230;10.390;2023-11-19T06:19:55;31.55;;;11.93;;
76626;SDS011;65519;53.230;10.390;2023-11-19T06:22:21;34.03;;;12.85;;
76626;SDS011;65519;53.230;10.390;2023-11-19T06:24:46;32.00;;;12.32;;
76626;SDS011;65519;53.230;10.390;2023-11-19T06:27:12;35.28;;;13.10;;
76626;SDS011;65519;53.230;10.390;2023-11-19T06:29:38;28.25;;;12.75;;
76626;SDS011;65519;53.230;10.390;2023-11-19T06:32:06;32.75;;;12.40;;
76626;SDS011;65519;53.230;10.390;2023-11-19T06:34:33;40.28;;;14.15;;
76626;SDS011;65519;53.230;10.390;2023-11-19T06:36:59;39.72;;;12.30;;
76626;SDS011;65519;53.230;10.390;2023-11-19T06:39:24;31.05;;;11.82;;
76626;SDS011;65519;53.230;10.390;2023-11-19T06:41:50;35.03;;;11.48;;
76626;SDS011;65519;53.230;10.390;2023-11-19T06:44:15;38.92;;;13.25;;
76626;SDS011;65519;53.230;10.390;2023-11-19T06:46:41;44.58;;;12.82;;
76626;SDS011;65519;53.230;10.390;2023-11-19T06:49:06;62.22;;;22.17;;
76626;SDS011;65519;53.230;10.390;2023-11-19T06:51:33;40.17;;;14.57;;
76626;SDS011;65519;53.230;10.390;2023-11-19T06:53:59;45.75;;;14.52;;
76626;SDS011;65519;53.230;10.390;2023-11-19T06:56:24;24.52;;;9.40;;
76626;SDS011;65519;53.230;10.390;2023-11-19T06:58:50;36.88;;;11.95;;
76626;SDS011;65519;53.230;10.390;2023-11-19T07:01:17;32.45;;;11.23;;
76626;SDS011;65519;53.230;10.390;2023-11-19T07:03:46;31.75;;;11.40;;
76626;SDS011;65519;53.230;10.390;2023-11-19T07:06:12;33.40;;;12.15;;
76626;SDS011;65519;53.230;10.390;2023-11-19T07:08:41;34.65;;;12.05;;
76626;SDS011;65519;53.230;10.390;2023-11-19T07:11:06;36.50;;;11.95;;
76626;SDS011;65519;53.230;10.390;2023-11-19T07:13:35;37.05;;;11.45;;
76626;SDS011;65519;53.230;10.390;2023-11-19T07:16:00;35.53;;;11.10;;
76626;SDS011;65519;53.230;10.390;2023-11-19T07:18:26;30.90;;;10.95;;
76626;SDS011;65519;53.230;10.390;2023-11-19T07:20:51;25.65;;;10.35;;
76626;SDS011;65519;53.230;10.390;2023-11-19T07:23:17;37.40;;;11.90;;
76626;SDS011;65519;53.230;10.390;2023-11-19T07:25:42;82.68;;;31.35;;
76626;SDS011;65519;53.230;10.390;2023-11-19T07:28:10;27.02;;;10.40;;
76626;SDS011;65519;53.230;10.390;2023-11-19T07:30:35;43.83;;;14.68;;
76626;SDS011;65519;53.230;10.390;2023-11-19T07:33:01;45.90;;;17.35;;
76626;SDS011;65519;53.230;10.390;2023-11-19T07:35:29;27.60;;;10.52;;
76626;SDS011;65519;53.230;10.390;2023-11-19T07:37:56;24.80;;;8.45;;
76626;SDS011;65519;53.230;10.390;2023-11-19T07:40:22;19.92;;;8.43;;
76626;SDS011;65519;53.230;10.390;2023-11-19T07:42:48;23.13;;;6.25;;
76626;SDS011;65519;53.230;10.390;2023-11-19T07:45:14;17.75;;;7.47;;
76626;SDS011;65519;53.230;10.390;2023-11-19T07:47:40;17.25;;;5.85;;
76626;SDS011;65519;53.230;10.390;2023-11-19T07:50:05;15.02;;;5.85;;
76626;SDS011;65519;53.230;10.390;2023-11-19T07:52:31;16.08;;;6.30;;
76626;SDS011;65519;53.230;10.390;2023-11-19T07:54:56;17.23;;;5.53;;
76626;SDS011;65519;53.230;10.390;2023-11-19T07:57:22;20.48;;;4.70;;
76626;SDS011;65519;53.230;10.390;2023-11-19T07:59:49;16.08;;;4.93;;
76626;SDS011;65519;53.230;10.390;2023-11-19T08:02:14;14.10;;;4.70;;
76626;SDS011;65519;53.230;10.390;2023-11-19T08:04:40;20.02;;;5.38;;
76626;SDS011;65519;53.230;10.390;2023-11-19T08:07:10;16.83;;;4.38;;
76626;SDS011;65519;53.230;10.390;2023-11-19T08:09:36;18.63;;;4.38;;
76626;SDS011;65519;53.230;10.390;2023-11-19T08:12:02;14.63;;;3.60;;
76626;SDS011;65519;53.230;10.390;2023-11-19T08:14:28;19.25;;;4.78;;
76626;SDS011;65519;53.230;10.390;2023-11-19T08:16:54;20.88;;;4.90;;
76626;SDS011;65519;53.230;10.390;2023-11-19T08:19:19;15.05;;;4.63;;
76626;SDS011;65519;53.230;10.390;2023-11-19T08:21:45;25.95;;;10.18;;
76626;SDS011;65519;53.230;10.390;2023-11-19T08:24:10;20.05;;;6.72;;
76626;SDS011;65519;53.230;10.390;2023-11-19T08:26:36;27.20;;;10.57;;
76626;SDS011;65519;53.230;10.390;2023-11-19T08:29:01;44.13;;;17.50;;
76626;SDS011;65519;53.230;10.390;2023-11-19T08:31:27;48.78;;;17.27;;
76626;SDS011;65519;53.230;10.390;2023-11-19T08:33:52;42.72;;;14.85;;
76626;SDS011;65519;53.230;10.390;2023-11-19T08:36:17;27.75;;;5.60;;
76626;SDS011;65519;53.230;10.390;2023-11-19T08:38:43;29.65;;;12.70;;
76626;SDS011;65519;53.230;10.390;2023-11-19T08:41:08;18.63;;;4.82;;
76626;SDS011;65519;53.230;10.390;2023-11-19T08:43:34;18.33;;;5.20;;
76626;SDS011;65519;53.230;10.390;2023-11-19T08:45:59;25.15;;;5.97;;
76626;SDS011;65519;53.230;10.390;2023-11-19T08:48:25;20.60;;;6.28;;
76626;SDS011;65519;53.230;10.390;2023-11-19T08:50:51;20.85;;;4.95;;
76626;SDS011;65519;53.230;10.390;2023-11-19T08:53:16;22.42;;;4.75;;
76626;SDS011;65519;53.230;10.390;2023-11-19T08:55:41;25.45;;;5.50;;
76626;SDS011;65519;53.230;10.390;2023-11-19T08:58:07;18.92;;;4.78;;
76626;SDS011;65519;53.230;10.390;2023-11-19T09:00:32;21.98;;;4.70;;
76626;SDS011;65519;53.230;10.390;2023-11-19T09:02:58;17.30;;;4.85;;
76626;SDS011;65519;53.230;10.390;2023-11-19T09:05:24;22.80;;;4.32;;
76626;SDS011;65519;53.230;10.390;2023-11-19T09:07:49;16.02;;;3.75;;
76626;SDS011;65519;53.230;10.390;2023-11-19T09:10:15;16.67;;;3.83;;
76626;SDS011;65519;53.230;10.390;2023-11-19T09:12:41;23.77;;;4.55;;
76626;SDS011;65519;53.230;10.390;2023-11-19T09:15:06;16.42;;;4.22;;
76626;SDS011;65519;53.230;10.390;2023-11-19T09:17:32;13.15;;;4.35;;
76626;SDS011;65519;53.230;10.390;2023-11-19T09:19:58;20.02;;;3.85;;
76626;SDS011;65519;53.230;10.390;2023-11-19T09:22:23;23.05;;;4.78;;
76626;SDS011;65519;53.230;10.390;2023-11-19T09:24:48;34.65;;;9.48;;
76626;SDS011;65519;53.230;10.390;2023-11-19T09:27:14;26.48;;;5.57;;
76626;SDS011;65519;53.230;10.390;2023-11-19T09:29:39;19.52;;;4.82;;
76626;SDS011;65519;53.230;10.390;2023-11-19T09:32:05;18.67;;;4.30;;
76626;SDS011;65519;53.230;10.390;2023-11-19T09:34:31;16.50;;;4.35;;
76626;SDS011;65519;53.230;10.390;2023-11-19T09:36:57;28.83;;;5.95;;
76626;SDS011;65519;53.230;10.390;2023-11-19T09:39:22;27.23;;;6.30;;
76626;SDS011;65519;53.230;10.390;2023-11-19T09:41:47;21.83;;;6.32;;
76626;SDS011;65519;53.230;10.390;2023-11-19T09:44:14;43.92;;;14.30;;
76626;SDS011;65519;53.230;10.390;2023-11-19T09:46:43;54.50;;;23.92;;
76626;SDS011;65519;53.230;10.390;2023-11-19T09:49:09;24.92;;;7.30;;
76626;SDS011;65519;53.230;10.390;2023-11-19T09:51:35;17.50;;;4.30;;
76626;SDS011;65519;53.230;10.390;2023-11-19T09:54:01;29.17;;;4.82;;
76626;SDS011;65519;53.230;10.390;2023-11-19T09:56:30;19.88;;;4.85;;
76626;SDS011;65519;53.230;10.390;2023-11-19T09:58:56;20.17;;;4.60;;
76626;SDS011;65519;53.230;10.390;2023-11-19T10:01:22;17.25;;;4.93;;
76626;SDS011;65519;53.230;10.390;2023-11-19T10:03:48;21.60;;;4.00;;
76626;SDS011;65519;53.230;10.390;2023-11-19T10:06:16;14.75;;;3.50;;
76626;SDS011;65519;53.230;10.390;2023-11-19T10:08:41;23.00;;;4.32;;
76626;SDS011;65519;53.230;10.390;2023-11-19T10:11:08;18.27;;;4.40;;
76626;SDS011;65519;53.230;10.390;2023-11-19T10:13:36;20.00;;;4.05;;
76626;SDS011;65519;53.230;10.390;2023-11-19T10:16:12;16.02;;;3.63;;
76626;SDS011;65519;53.230;10.390;2023-11-19T10:18:39;22.05;;;5.32;;
76626;SDS011;65519;53.230;10.390;2023-11-19T10:21:11;24.70;;;4.45;;
76626;SDS011;65519;53.230;10.390;2023-11-19T10:23:51;20.85;;;4.40;;
76626;SDS011;65519;53.230;10.390;2023-11-19T10:26:18;16.98;;;3.90;;
76626;SDS011;65519;53.230;10.390;2023-11-19T10:28:45;19.88;;;3.97;;
76626;SDS011;65519;53.230;10.390;2023-11-19T10:31:12;19.00;;;5.13;;
76626;SDS011;65519;53.230;10.390;2023-11-19T10:33:39;24.55;;;4.80;;
76626;SDS011;65519;53.230;10.390;2023-11-19T10:36:04;19.88;;;4.35;;
76626;SDS011;65519;53.230;10.390;2023-11-19T10:38:30;21.70;;;4.93;;
76626;SDS011;65519;53.230;10.390;2023-11-19T10:40:55;17.05;;;5.00;;
76626;SDS011;65519;53.230;10.390;2023-11-19T10:43:21;23.77;;;4.82;;
76626;SDS011;65519;53.230;10.390;2023-11-19T10:45:48;25.38;;;5.10;;
76626;SDS011;65519;53.230;10.390;2023-11-19T10:48:14;20.00;;;4.55;;
76626;SDS011;65519;53.230;10.390;2023-11-19T10:50:43;21.27;;;4.32;;
76626;SDS011;65519;53.230;10.390;2023-11-19T10:53:10;20.38;;;4.88;;
76626;SDS011;65519;53.230;10.390;2023-11-19T10:55:38;23.85;;;4.10;;
76626;SDS011;65519;53.230;10.390;2023-11-19T10:58:05;18.80;;;5.13;;
76626;SDS011;65519;53.230;10.390;2023-11-19T11:00:54;19.60;;;3.83;;
76626;SDS011;65519;53.230;10.390;2023-11-19T11:03:21;21.55;;;3.88;;
76626;SDS011;65519;53.230;10.390;2023-11-19T11:05:50;25.27;;;4.30;;
76626;SDS011;65519;53.230;10.390;2023-11-19T11:08:18;27.48;;;4.63;;
76626;SDS011;65519;53.230;10.390;2023-11-19T11:10:54;22.60;;;6.88;;
76626;SDS011;65519;53.230;10.390;2023-11-19T11:13:24;39.00;;;12.93;;
76626;SDS011;65519;53.230;10.390;2023-11-19T11:15:50;21.73;;;4.57;;
76626;SDS011;65519;53.230;10.390;2023-11-19T11:18:16;11.70;;;2.90;;
76626;SDS011;65519;53.230;10.390;2023-11-19T11:20:46;21.52;;;4.45;;
76626;SDS011;65519;53.230;10.390;2023-11-19T11:37:18;19.75;;;4.88;;
76626;SDS011;65519;53.230;10.390;2023-11-19T11:39:52;19.27;;;4.57;;
76626;SDS011;65519;53.230;10.390;2023-11-19T11:50:09;16.73;;;4.32;;
76626;SDS011;65519;53.230;10.390;2023-11-19T11:53:13;17.27;;;3.55;;
76626;SDS011;65519;53.230;10.390;2023-11-19T11:58:01;20.80;;;4.55;;
76626;SDS011;65519;53.230;10.390;2023-11-19T12:00:39;16.20;;;3.95;;
76626;SDS011;65519;53.230;10.390;2023-11-19T12:03:07;14.02;;;4.22;;
76626;SDS011;65519;53.230;10.390;2023-11-19T12:05:35;12.10;;;2.92;;
76626;SDS011;65519;53.230;10.390;2023-11-19T12:08:06;14.98;;;3.92;;
76626;SDS011;65519;53.230;10.390;2023-11-19T12:10:36;12.52;;;2.92;;
76626;SDS011;65519;53.230;10.390;2023-11-19T12:13:08;15.82;;;3.95;;
76626;SDS011;65519;53.230;10.390;2023-11-19T12:16:07;17.92;;;3.08;;
76626;SDS011;65519;53.230;10.390;2023-11-19T12:18:19;46.63;;;16.08;;
76626;SDS011;65519;53.230;10.390;2023-11-19T12:20:45;16.10;;;4.32;;
76626;SDS011;65519;53.230;10.390;2023-11-19T12:23:10;25.30;;;8.88;;
76626;SDS011;65519;53.230;10.390;2023-11-19T12:25:36;20.10;;;4.15;;
76626;SDS011;65519;53.230;10.390;2023-11-19T12:28:02;12.90;;;3.58;;
76626;SDS011;65519;53.230;10.390;2023-11-19T12:30:29;17.15;;;3.47;;
76626;SDS011;65519;53.230;10.390;2023-11-19T12:32:55;13.73;;;3.60;;
76626;SDS011;65519;53.230;10.390;2023-11-19T12:35:20;14.43;;;3.85;;
76626;SDS011;65519;53.230;10.390;2023-11-19T12:37:47;12.93;;;3.30;;
76626;SDS011;65519;53.230;10.390;2023-11-19T12:40:17;15.20;;;3.58;;
76626;SDS011;65519;53.230;10.390;2023-11-19T12:42:50;13.73;;;3.60;;
76626;SDS011;65519;53.230;10.390;2023-11-19T12:45:17;9.95;;;2.67;;
76626;SDS011;65519;53.230;10.390;2023-11-19T12:47:45;17.25;;;4.55;;
76626;SDS011;65519;53.230;10.390;2023-11-19T12:50:14;16.13;;;3.85;;
76626;SDS011;65519;53.230;10.390;2023-11-19T12:58:09;19.17;;;5.40;;
76626;SDS011;65519;53.230;10.390;2023-11-19T13:00:34;12.65;;;3.80;;
76626;SDS011;65519;53.230;10.390;2023-11-19T13:02:59;20.23;;;4.05;;
76626;SDS011;65519;53.230;10.390;2023-11-19T13:05:29;16.25;;;3.70;;
76626;SDS011;65519;53.230;10.390;2023-11-19T13:10:25;19.52;;;3.85;;
76626;SDS011;65519;53.230;10.390;2023-11-19T13:13:08;16.83;;;3.70;;
76626;SDS011;65519;53.230;10.390;2023-11-19T13:15:34;19.02;;;4.28;;
76626;SDS011;65519;53.230;10.390;2023-11-19T13:18:00;16.73;;;3.53;;
76626;SDS011;65519;53.230;10.390;2023-11-19T13:20:27;25.35;;;3.40;;
76626;SDS011;65519;53.230;10.390;2023-11-19T13:23:03;17.80;;;4.28;;
76626;SDS011;65519;53.230;10.390;2023-11-19T13:25:32;17.67;;;3.45;;
76626;SDS011;65519;53.230;10.390;2023-11-19T13:27:58;22.17;;;4.80;;
76626;SDS011;65519;53.230;10.390;2023-11-19T13:30:23;15.35;;;3.67;;
76626;SDS011;65519;53.230;10.390;2023-11-19T13:32:50;14.68;;;3.50;;
76626;SDS011;65519;53.230;10.390;2023-11-19T13:35:16;17.35;;;3.88;;
76626;SDS011;65519;53.230;10.390;2023-11-19T13:37:43;19.25;;;3.83;;
76626;SDS011;65519;53.230;10.390;2023-11-19T13:40:09;17.30;;;3.92;;
76626;SDS011;65519;53.230;10.390;2023-11-19T13:42:38;29.70;;;4.75;;
76626;SDS011;65519;53.230;10.390;2023-11-19T13:45:14;24.92;;;4.07;;
76626;SDS011;65519;53.230;10.390;2023-11-19T13:47:41;22.90;;;4.45;;
76626;SDS011;65519;53.230;10.390;2023-11-19T13:50:11;18.70;;;4.32;;
76626;SDS011;65519;53.230;10.390;2023-11-19T13:52:38;15.13;;;3.25;;
76626;SDS011;65519;53.230;10.390;2023-11-19T13:55:06;26.13;;;7.32;;
76626;SDS011;65519;53.230;10.390;2023-11-19T13:57:33;24.27;;;5.07;;
76626;SDS011;65519;53.230;10.390;2023-11-19T14:00:08;20.85;;;5.25;;
76626;SDS011;65519;53.230;10.390;2023-11-19T14:02:47;15.35;;;3.42;;
76626;SDS011;65519;53.230;10.390;2023-11-19T14:05:13;16.55;;;4.50;;
76626;SDS011;65519;53.230;10.390;2023-11-19T14:07:39;21.30;;;6.30;;
76626;SDS011;65519;53.230;10.390;2023-11-19T14:10:05;18.00;;;4.32;;
76626;SDS011;65519;53.230;10.390;2023-11-19T14:12:35;22.27;;;4.05;;
76626;SDS011;65519;53.230;10.390;2023-11-19T14:15:04;14.63;;;4.63;;
76626;SDS011;65519;53.230;10.390;2023-11-19T14:17:38;20.88;;;4.75;;
76626;SDS011;65519;53.230;10.390;2023-11-19T14:20:04;20.38;;;4.72;;
76626;SDS011;65519;53.230;10.390;2023-11-19T14:22:41;19.45;;;3.78;;
76626;SDS011;65519;53.230;10.390;2023-11-19T14:25:10;13.88;;;3.50;;
76626;SDS011;65519;53.230;10.390;2023-11-19T14:27:39;16.92;;;4.25;;
76626;SDS011;65519;53.230;10.390;2023-11-19T14:30:06;14.18;;;3.33;;
76626;SDS011;65519;53.230;10.390;2023-11-19T14:32:37;21.80;;;3.92;;
76626;SDS011;65519;53.230;10.390;2023-11-19T14:35:06;14.18;;;3.47;;
76626;SDS011;65519;53.230;10.390;2023-11-19T14:37:32;21.63;;;3.75;;
76626;SDS011;65519;53.230;10.390;2023-11-19T14:39:58;14.85;;;3.53;;
76626;SDS011;65519;53.230;10.390;2023-11-19T14:42:25;15.35;;;4.13;;
76626;SDS011;65519;53.230;10.390;2023-11-19T14:44:53;13.38;;;3.50;;
76626;SDS011;65519;53.230;10.390;2023-11-19T14:47:22;15.73;;;4.10;;
76626;SDS011;65519;53.230;10.390;2023-11-19T14:49:47;23.27;;;5.25;;
76626;SDS011;65519;53.230;10.390;2023-11-19T14:52:13;15.07;;;3.00;;
76626;SDS011;65519;53.230;10.390;2023-11-19T14:54:39;11.45;;;2.55;;
76626;SDS011;65519;53.230;10.390;2023-11-19T14:57:05;14.00;;;2.83;;